Portada
METAR-TAF:

METAR-TAF

Aeroports :

NWS Office

Pohnpei, Micronèsia

latitud: 06-58N, longitud: 158-13E, altitud: 39 m

Observació

L'informe es va fer fa 22 minuts, a les 18:42 UTC
Vent 7 kt del Est/Sud-Est
Temperatura 26°C
Humitat 89%
Pressió 1009 hPa
Visibilitat: 20.9 km
Cel ennuvolat a una alçada de 1700 ft, Cumulus congestus.
Cel cobert a una alçada de 12000 ft
xàfecs de pluja

METAR: PTTP 041842Z 12007KT 13SM -SHRA BKN017TCU OVC120 26/24 A2979 RMK TCU ALQDS

Hora: 06:04 (19:04 UTC)


TAF: manca

Observacions i pronòstics meteorològics de més de 4000 aeroports (METAR i TAF).

Les estacions disponibles són els punts grocs i vermells al mapa.

Posi el ratolí al punt desitjat per veure el nom de l'estació.

Feu clic per veure les observacions i els pronòstics meteorològics.

Per canviar el mapa: feu clic els botons verds amb una creu de color negre per apropar; al botó verd amb un guió per allunyar la imatge; o en les fletxes verdes per a mapes adjacents.


METAR-TAF: